sensor_id;sensor_type;location;lat;lon;timestamp;temperature;humidity
29939;DHT22;16799;50.844;5.304;2024-01-30T00:01:22;8.90;99.90
29939;DHT22;16799;50.844;5.304;2024-01-30T00:03:48;8.80;99.90
29939;DHT22;16799;50.844;5.304;2024-01-30T00:06:14;8.80;99.90
29939;DHT22;16799;50.844;5.304;2024-01-30T00:08:39;8.80;99.90
29939;DHT22;16799;50.844;5.304;2024-01-30T00:11:05;8.80;99.90
29939;DHT22;16799;50.844;5.304;2024-01-30T00:13:32;8.80;99.90
29939;DHT22;16799;50.844;5.304;2024-01-30T00:15:58;8.90;99.90
29939;DHT22;16799;50.844;5.304;2024-01-30T00:18:24;8.90;99.90
29939;DHT22;16799;50.844;5.304;2024-01-30T00:20:49;8.90;99.90
29939;DHT22;16799;50.844;5.304;2024-01-30T00:23:15;8.90;99.90
29939;DHT22;16799;50.844;5.304;2024-01-30T00:25:41;8.80;99.90
29939;DHT22;16799;50.844;5.304;2024-01-30T00:28:06;8.80;99.90
29939;DHT22;16799;50.844;5.304;2024-01-30T00:30:32;8.80;99.90
29939;DHT22;16799;50.844;5.304;2024-01-30T00:32:57;9.00;99.90
29939;DHT22;16799;50.844;5.304;2024-01-30T00:35:23;8.90;99.90
29939;DHT22;16799;50.844;5.304;2024-01-30T00:37:49;8.90;99.90
29939;DHT22;16799;50.844;5.304;2024-01-30T00:40:15;8.80;99.90
29939;DHT22;16799;50.844;5.304;2024-01-30T00:42:44;8.70;99.90
29939;DHT22;16799;50.844;5.304;2024-01-30T00:45:16;8.70;99.90
29939;DHT22;16799;50.844;5.304;2024-01-30T00:47:42;8.80;99.90
29939;DHT22;16799;50.844;5.304;2024-01-30T00:50:09;8.70;99.90
29939;DHT22;16799;50.844;5.304;2024-01-30T00:52:35;8.60;99.90
29939;DHT22;16799;50.844;5.304;2024-01-30T00:55:01;8.70;99.90
29939;DHT22;16799;50.844;5.304;2024-01-30T00:57:28;8.70;99.90
29939;DHT22;16799;50.844;5.304;2024-01-30T00:59:54;8.80;99.90
29939;DHT22;16799;50.844;5.304;2024-01-30T01:02:20;8.80;99.90
29939;DHT22;16799;50.844;5.304;2024-01-30T01:04:46;8.80;99.90
29939;DHT22;16799;50.844;5.304;2024-01-30T01:07:11;8.80;99.90
29939;DHT22;16799;50.844;5.304;2024-01-30T01:09:37;8.80;99.90
29939;DHT22;16799;50.844;5.304;2024-01-30T01:12:04;8.80;99.90
29939;DHT22;16799;50.844;5.304;2024-01-30T01:14:30;8.80;99.90
29939;DHT22;16799;50.844;5.304;2024-01-30T01:16:55;8.80;99.90
29939;DHT22;16799;50.844;5.304;2024-01-30T01:19:22;8.80;99.90
29939;DHT22;16799;50.844;5.304;2024-01-30T01:21:47;8.80;99.90
29939;DHT22;16799;50.844;5.304;2024-01-30T01:24:13;8.80;99.90
29939;DHT22;16799;50.844;5.304;2024-01-30T01:26:39;8.90;99.90
29939;DHT22;16799;50.844;5.304;2024-01-30T01:29:06;8.90;99.90
29939;DHT22;16799;50.844;5.304;2024-01-30T01:31:38;8.90;99.90
29939;DHT22;16799;50.844;5.304;2024-01-30T01:34:11;8.80;99.90
29939;DHT22;16799;50.844;5.304;2024-01-30T01:36:37;8.80;99.90
29939;DHT22;16799;50.844;5.304;2024-01-30T01:39:03;8.70;99.90
29939;DHT22;16799;50.844;5.304;2024-01-30T01:41:33;8.60;99.90
29939;DHT22;16799;50.844;5.304;2024-01-30T01:43:59;8.60;99.90
29939;DHT22;16799;50.844;5.304;2024-01-30T01:46:30;8.70;99.90
29939;DHT22;16799;50.844;5.304;2024-01-30T01:48:56;8.70;99.90
29939;DHT22;16799;50.844;5.304;2024-01-30T01:51:24;8.80;99.90
29939;DHT22;16799;50.844;5.304;2024-01-30T01:53:52;8.80;99.90
29939;DHT22;16799;50.844;5.304;2024-01-30T01:56:18;8.90;99.90
29939;DHT22;16799;50.844;5.304;2024-01-30T01:58:46;9.00;99.90
29939;DHT22;16799;50.844;5.304;2024-01-30T02:01:13;9.10;99.90
29939;DHT22;16799;50.844;5.304;2024-01-30T02:03:40;9.10;99.90
29939;DHT22;16799;50.844;5.304;2024-01-30T02:06:06;9.10;99.90
29939;DHT22;16799;50.844;5.304;2024-01-30T02:08:32;9.10;99.90
29939;DHT22;16799;50.844;5.304;2024-01-30T02:10:59;9.10;99.90
29939;DHT22;16799;50.844;5.304;2024-01-30T02:13:25;9.20;99.90
29939;DHT22;16799;50.844;5.304;2024-01-30T02:15:53;9.30;99.90
29939;DHT22;16799;50.844;5.304;2024-01-30T02:18:20;9.30;99.90
29939;DHT22;16799;50.844;5.304;2024-01-30T02:20:47;9.30;99.90
29939;DHT22;16799;50.844;5.304;2024-01-30T02:23:13;9.30;99.90
29939;DHT22;16799;50.844;5.304;2024-01-30T02:25:41;9.30;99.90
29939;DHT22;16799;50.844;5.304;2024-01-30T02:28:13;9.40;99.90
29939;DHT22;16799;50.844;5.304;2024-01-30T02:30:46;9.40;99.90
29939;DHT22;16799;50.844;5.304;2024-01-30T02:33:12;9.50;99.90
29939;DHT22;16799;50.844;5.304;2024-01-30T02:35:38;9.50;99.90
29939;DHT22;16799;50.844;5.304;2024-01-30T02:38:04;9.60;99.90
29939;DHT22;16799;50.844;5.304;2024-01-30T02:40:29;9.60;99.90
29939;DHT22;16799;50.844;5.304;2024-01-30T02:42:56;9.70;99.90
29939;DHT22;16799;50.844;5.304;2024-01-30T02:45:21;9.60;99.90
29939;DHT22;16799;50.844;5.304;2024-01-30T02:47:47;9.60;99.90
29939;DHT22;16799;50.844;5.304;2024-01-30T02:50:13;9.60;99.90
29939;DHT22;16799;50.844;5.304;2024-01-30T02:52:40;9.70;99.90
29939;DHT22;16799;50.844;5.304;2024-01-30T02:55:06;9.80;99.90
29939;DHT22;16799;50.844;5.304;2024-01-30T02:57:32;9.80;99.90
29939;DHT22;16799;50.844;5.304;2024-01-30T02:59:57;9.80;99.90
29939;DHT22;16799;50.844;5.304;2024-01-30T03:02:23;9.80;99.90
29939;DHT22;16799;50.844;5.304;2024-01-30T03:04:49;9.90;99.90
29939;DHT22;16799;50.844;5.304;2024-01-30T03:07:14;9.90;99.90
29939;DHT22;16799;50.844;5.304;2024-01-30T03:09:41;10.00;99.90
29939;DHT22;16799;50.844;5.304;2024-01-30T03:12:09;9.90;99.90
29939;DHT22;16799;50.844;5.304;2024-01-30T03:14:35;9.90;99.90
29939;DHT22;16799;50.844;5.304;2024-01-30T03:17:01;9.90;99.90
29939;DHT22;16799;50.844;5.304;2024-01-30T03:19:26;9.80;99.90
29939;DHT22;16799;50.844;5.304;2024-01-30T03:21:52;9.90;99.90
29939;DHT22;16799;50.844;5.304;2024-01-30T03:24:18;10.00;99.90
29939;DHT22;16799;50.844;5.304;2024-01-30T03:26:44;10.00;99.90
29939;DHT22;16799;50.844;5.304;2024-01-30T03:29:10;10.00;99.90
29939;DHT22;16799;50.844;5.304;2024-01-30T03:31:35;10.00;99.90
29939;DHT22;16799;50.844;5.304;2024-01-30T03:34:01;10.00;99.90
29939;DHT22;16799;50.844;5.304;2024-01-30T03:36:27;10.00;99.90
29939;DHT22;16799;50.844;5.304;2024-01-30T03:38:53;10.00;99.90
29939;DHT22;16799;50.844;5.304;2024-01-30T03:41:19;10.00;99.90
29939;DHT22;16799;50.844;5.304;2024-01-30T03:43:44;9.90;99.90
29939;DHT22;16799;50.844;5.304;2024-01-30T03:46:12;9.90;99.90
29939;DHT22;16799;50.844;5.304;2024-01-30T03:48:38;9.80;99.90
29939;DHT22;16799;50.844;5.304;2024-01-30T03:51:04;9.80;99.90
29939;DHT22;16799;50.844;5.304;2024-01-30T03:53:30;9.70;99.90
29939;DHT22;16799;50.844;5.304;2024-01-30T03:55:55;9.70;99.90
29939;DHT22;16799;50.844;5.304;2024-01-30T03:58:22;9.70;99.90
29939;DHT22;16799;50.844;5.304;2024-01-30T04:00:48;9.70;99.90
29939;DHT22;16799;50.844;5.304;2024-01-30T04:03:16;9.70;99.90
29939;DHT22;16799;50.844;5.304;2024-01-30T04:05:42;9.70;99.90
29939;DHT22;16799;50.844;5.304;2024-01-30T04:08:08;9.70;99.90
29939;DHT22;16799;50.844;5.304;2024-01-30T04:10:34;9.80;99.90
29939;DHT22;16799;50.844;5.304;2024-01-30T04:13:00;9.80;99.90
29939;DHT22;16799;50.844;5.304;2024-01-30T04:15:26;9.70;99.90
29939;DHT22;16799;50.844;5.304;2024-01-30T04:17:52;9.70;99.90
29939;DHT22;16799;50.844;5.304;2024-01-30T04:20:17;9.70;99.90
29939;DHT22;16799;50.844;5.304;2024-01-30T04:22:44;9.70;99.90
29939;DHT22;16799;50.844;5.304;2024-01-30T04:25:10;9.70;99.90
29939;DHT22;16799;50.844;5.304;2024-01-30T04:27:36;9.70;99.90
29939;DHT22;16799;50.844;5.304;2024-01-30T04:30:02;9.80;99.90
29939;DHT22;16799;50.844;5.304;2024-01-30T04:32:28;9.80;99.90
29939;DHT22;16799;50.844;5.304;2024-01-30T04:34:53;9.70;99.90
29939;DHT22;16799;50.844;5.304;2024-01-30T04:37:19;9.70;99.90
29939;DHT22;16799;50.844;5.304;2024-01-30T04:39:44;9.70;99.90
29939;DHT22;16799;50.844;5.304;2024-01-30T04:42:10;9.70;99.90
29939;DHT22;16799;50.844;5.304;2024-01-30T04:44:36;9.80;99.90
29939;DHT22;16799;50.844;5.304;2024-01-30T04:47:01;9.90;99.90
29939;DHT22;16799;50.844;5.304;2024-01-30T04:49:27;9.70;99.90
29939;DHT22;16799;50.844;5.304;2024-01-30T04:51:54;9.60;99.90
29939;DHT22;16799;50.844;5.304;2024-01-30T04:54:20;9.50;99.90
29939;DHT22;16799;50.844;5.304;2024-01-30T04:56:45;9.50;99.90
29939;DHT22;16799;50.844;5.304;2024-01-30T04:59:11;9.60;99.90
29939;DHT22;16799;50.844;5.304;2024-01-30T05:01:37;9.70;99.90
29939;DHT22;16799;50.844;5.304;2024-01-30T05:04:03;9.60;99.90
29939;DHT22;16799;50.844;5.304;2024-01-30T05:06:29;9.60;99.90
29939;DHT22;16799;50.844;5.304;2024-01-30T05:08:55;9.70;99.90
29939;DHT22;16799;50.844;5.304;2024-01-30T05:11:21;9.60;99.90
29939;DHT22;16799;50.844;5.304;2024-01-30T05:13:46;9.50;99.90
29939;DHT22;16799;50.844;5.304;2024-01-30T05:16:13;9.40;99.90
29939;DHT22;16799;50.844;5.304;2024-01-30T05:18:38;9.60;99.90
29939;DHT22;16799;50.844;5.304;2024-01-30T05:21:05;9.50;99.90
29939;DHT22;16799;50.844;5.304;2024-01-30T05:23:30;9.40;99.90
29939;DHT22;16799;50.844;5.304;2024-01-30T05:25:56;9.40;99.90
29939;DHT22;16799;50.844;5.304;2024-01-30T05:28:22;9.50;99.90
29939;DHT22;16799;50.844;5.304;2024-01-30T05:30:48;9.60;99.90
29939;DHT22;16799;50.844;5.304;2024-01-30T05:33:13;9.60;99.90
29939;DHT22;16799;50.844;5.304;2024-01-30T05:35:39;9.60;99.90
29939;DHT22;16799;50.844;5.304;2024-01-30T05:38:05;9.60;99.90
29939;DHT22;16799;50.844;5.304;2024-01-30T05:40:30;9.60;99.90
29939;DHT22;16799;50.844;5.304;2024-01-30T05:42:56;9.70;99.90
29939;DHT22;16799;50.844;5.304;2024-01-30T05:45:26;9.70;99.90
29939;DHT22;16799;50.844;5.304;2024-01-30T05:47:52;9.70;99.90
29939;DHT22;16799;50.844;5.304;2024-01-30T05:50:18;9.70;99.90
29939;DHT22;16799;50.844;5.304;2024-01-30T05:52:44;9.80;99.90
29939;DHT22;16799;50.844;5.304;2024-01-30T05:55:11;9.70;99.90
29939;DHT22;16799;50.844;5.304;2024-01-30T05:57:37;9.80;99.90
29939;DHT22;16799;50.844;5.304;2024-01-30T06:00:04;9.70;99.90
29939;DHT22;16799;50.844;5.304;2024-01-30T06:02:30;9.90;99.90
29939;DHT22;16799;50.844;5.304;2024-01-30T06:04:56;10.00;99.90
29939;DHT22;16799;50.844;5.304;2024-01-30T06:07:21;10.00;99.90
29939;DHT22;16799;50.844;5.304;2024-01-30T06:09:47;10.00;99.90
29939;DHT22;16799;50.844;5.304;2024-01-30T06:12:13;10.00;99.90
29939;DHT22;16799;50.844;5.304;2024-01-30T06:14:39;10.10;99.90
29939;DHT22;16799;50.844;5.304;2024-01-30T06:17:05;10.10;99.90
29939;DHT22;16799;50.844;5.304;2024-01-30T06:19:30;10.10;99.90
29939;DHT22;16799;50.844;5.304;2024-01-30T06:21:57;10.10;99.90
29939;DHT22;16799;50.844;5.304;2024-01-30T06:24:22;10.00;99.90
29939;DHT22;16799;50.844;5.304;2024-01-30T06:26:48;10.10;99.90
29939;DHT22;16799;50.844;5.304;2024-01-30T06:29:14;10.10;99.90
29939;DHT22;16799;50.844;5.304;2024-01-30T06:31:43;10.10;99.90
29939;DHT22;16799;50.844;5.304;2024-01-30T06:34:09;9.90;99.90
29939;DHT22;16799;50.844;5.304;2024-01-30T06:36:35;10.00;99.90
29939;DHT22;16799;50.844;5.304;2024-01-30T06:39:02;10.20;99.90
29939;DHT22;16799;50.844;5.304;2024-01-30T06:41:28;10.20;99.90
29939;DHT22;16799;50.844;5.304;2024-01-30T06:43:54;10.30;99.90
29939;DHT22;16799;50.844;5.304;2024-01-30T06:46:19;10.10;99.90
29939;DHT22;16799;50.844;5.304;2024-01-30T06:48:45;10.20;99.90
29939;DHT22;16799;50.844;5.304;2024-01-30T06:51:11;10.20;99.90
29939;DHT22;16799;50.844;5.304;2024-01-30T06:53:37;10.20;99.90
29939;DHT22;16799;50.844;5.304;2024-01-30T06:56:03;10.30;99.90
29939;DHT22;16799;50.844;5.304;2024-01-30T06:58:29;10.40;99.90
29939;DHT22;16799;50.844;5.304;2024-01-30T07:00:55;10.30;99.90
29939;DHT22;16799;50.844;5.304;2024-01-30T07:03:21;10.50;99.90
29939;DHT22;16799;50.844;5.304;2024-01-30T07:05:47;10.60;99.90
29939;DHT22;16799;50.844;5.304;2024-01-30T07:08:12;10.60;99.90
29939;DHT22;16799;50.844;5.304;2024-01-30T07:10:38;10.50;99.90
29939;DHT22;16799;50.844;5.304;2024-01-30T07:13:04;10.60;99.90
29939;DHT22;16799;50.844;5.304;2024-01-30T07:15:31;10.70;99.90
29939;DHT22;16799;50.844;5.304;2024-01-30T07:17:56;10.70;99.90
29939;DHT22;16799;50.844;5.304;2024-01-30T07:20:22;10.50;99.90
29939;DHT22;16799;50.844;5.304;2024-01-30T07:22:48;10.60;99.90
29939;DHT22;16799;50.844;5.304;2024-01-30T07:25:14;10.60;99.90
29939;DHT22;16799;50.844;5.304;2024-01-30T07:27:39;10.60;99.90
29939;DHT22;16799;50.844;5.304;2024-01-30T07:30:06;10.70;99.90
29939;DHT22;16799;50.844;5.304;2024-01-30T07:32:31;10.80;99.90
29939;DHT22;16799;50.844;5.304;2024-01-30T07:34:57;10.80;99.90
29939;DHT22;16799;50.844;5.304;2024-01-30T07:37:23;10.80;99.90
29939;DHT22;16799;50.844;5.304;2024-01-30T07:39:48;10.60;99.90
29939;DHT22;16799;50.844;5.304;2024-01-30T07:42:14;10.40;99.90
29939;DHT22;16799;50.844;5.304;2024-01-30T07:44:40;10.40;99.90
29939;DHT22;16799;50.844;5.304;2024-01-30T07:47:05;10.40;99.90
29939;DHT22;16799;50.844;5.304;2024-01-30T07:49:32;10.30;99.90
29939;DHT22;16799;50.844;5.304;2024-01-30T07:51:57;10.20;99.90
29939;DHT22;16799;50.844;5.304;2024-01-30T07:54:23;10.20;99.90
29939;DHT22;16799;50.844;5.304;2024-01-30T07:56:49;10.20;99.90
29939;DHT22;16799;50.844;5.304;2024-01-30T07:59:15;10.10;99.90
29939;DHT22;16799;50.844;5.304;2024-01-30T08:01:41;10.20;99.90
29939;DHT22;16799;50.844;5.304;2024-01-30T08:04:07;10.20;99.90
29939;DHT22;16799;50.844;5.304;2024-01-30T08:06:33;10.10;99.90
29939;DHT22;16799;50.844;5.304;2024-01-30T08:08:58;10.20;99.90
29939;DHT22;16799;50.844;5.304;2024-01-30T08:11:24;10.20;99.90
29939;DHT22;16799;50.844;5.304;2024-01-30T08:13:55;10.20;99.90
29939;DHT22;16799;50.844;5.304;2024-01-30T08:16:20;10.30;99.90
29939;DHT22;16799;50.844;5.304;2024-01-30T08:18:46;10.30;99.90
29939;DHT22;16799;50.844;5.304;2024-01-30T08:21:12;10.30;99.90
29939;DHT22;16799;50.844;5.304;2024-01-30T08:23:39;10.40;99.90
29939;DHT22;16799;50.844;5.304;2024-01-30T08:26:05;10.40;99.90
29939;DHT22;16799;50.844;5.304;2024-01-30T08:28:31;10.40;99.90
29939;DHT22;16799;50.844;5.304;2024-01-30T08:30:57;10.50;99.90
29939;DHT22;16799;50.844;5.304;2024-01-30T08:33:22;10.70;99.90
29939;DHT22;16799;50.844;5.304;2024-01-30T08:35:48;10.70;99.90
29939;DHT22;16799;50.844;5.304;2024-01-30T08:38:14;10.80;99.90
29939;DHT22;16799;50.844;5.304;2024-01-30T08:40:39;10.90;99.90
29939;DHT22;16799;50.844;5.304;2024-01-30T08:43:05;10.90;99.90
29939;DHT22;16799;50.844;5.304;2024-01-30T08:45:31;11.20;99.90
29939;DHT22;16799;50.844;5.304;2024-01-30T08:47:56;11.40;99.90
29939;DHT22;16799;50.844;5.304;2024-01-30T08:50:22;11.40;99.90
29939;DHT22;16799;50.844;5.304;2024-01-30T08:52:48;11.40;99.90
29939;DHT22;16799;50.844;5.304;2024-01-30T08:55:13;11.50;99.90
29939;DHT22;16799;50.844;5.304;2024-01-30T08:57:39;11.50;99.90
29939;DHT22;16799;50.844;5.304;2024-01-30T09:00:05;11.60;99.90
29939;DHT22;16799;50.844;5.304;2024-01-30T09:02:34;11.60;99.90
29939;DHT22;16799;50.844;5.304;2024-01-30T09:05:00;11.60;99.90
29939;DHT22;16799;50.844;5.304;2024-01-30T09:07:26;11.60;99.90
29939;DHT22;16799;50.844;5.304;2024-01-30T09:09:52;11.70;99.90
29939;DHT22;16799;50.844;5.304;2024-01-30T09:12:17;11.70;99.90
29939;DHT22;16799;50.844;5.304;2024-01-30T09:14:43;11.80;99.90
29939;DHT22;16799;50.844;5.304;2024-01-30T09:17:09;11.70;99.90
29939;DHT22;16799;50.844;5.304;2024-01-30T09:19:34;11.70;99.90
29939;DHT22;16799;50.844;5.304;2024-01-30T09:22:00;11.90;99.90
29939;DHT22;16799;50.844;5.304;2024-01-30T09:24:26;11.90;99.90
29939;DHT22;16799;50.844;5.304;2024-01-30T09:26:52;11.80;99.90
29939;DHT22;16799;50.844;5.304;2024-01-30T09:29:18;11.80;99.90
29939;DHT22;16799;50.844;5.304;2024-01-30T09:31:46;12.00;99.90
29939;DHT22;16799;50.844;5.304;2024-01-30T09:34:13;12.10;99.90
29939;DHT22;16799;50.844;5.304;2024-01-30T09:36:39;12.20;99.90
29939;DHT22;16799;50.844;5.304;2024-01-30T09:39:05;12.30;99.90
29939;DHT22;16799;50.844;5.304;2024-01-30T09:41:51;12.40;99.90
29939;DHT22;16799;50.844;5.304;2024-01-30T09:44:21;12.30;99.90
29939;DHT22;16799;50.844;5.304;2024-01-30T09:46:48;12.30;99.90
29939;DHT22;16799;50.844;5.304;2024-01-30T09:49:15;12.30;99.90
29939;DHT22;16799;50.844;5.304;2024-01-30T09:51:41;12.40;99.90
29939;DHT22;16799;50.844;5.304;2024-01-30T09:54:08;12.50;99.90
29939;DHT22;16799;50.844;5.304;2024-01-30T09:56:35;12.60;99.90
29939;DHT22;16799;50.844;5.304;2024-01-30T09:59:00;12.50;99.90
29939;DHT22;16799;50.844;5.304;2024-01-30T10:01:26;12.60;99.90
29939;DHT22;16799;50.844;5.304;2024-01-30T10:03:53;12.60;99.90
29939;DHT22;16799;50.844;5.304;2024-01-30T10:06:19;12.50;99.90
29939;DHT22;16799;50.844;5.304;2024-01-30T10:08:46;12.50;99.90
29939;DHT22;16799;50.844;5.304;2024-01-30T10:11:12;12.40;99.90
29939;DHT22;16799;50.844;5.304;2024-01-30T10:13:39;12.50;99.90
29939;DHT22;16799;50.844;5.304;2024-01-30T10:16:05;12.60;99.90
29939;DHT22;16799;50.844;5.304;2024-01-30T10:18:32;12.60;99.90
29939;DHT22;16799;50.844;5.304;2024-01-30T10:20:59;12.70;99.90
29939;DHT22;16799;50.844;5.304;2024-01-30T10:23:24;12.80;99.90
29939;DHT22;16799;50.844;5.304;2024-01-30T10:25:53;12.80;99.90
29939;DHT22;16799;50.844;5.304;2024-01-30T10:28:19;12.90;99.90
29939;DHT22;16799;50.844;5.304;2024-01-30T10:30:44;12.70;99.90
29939;DHT22;16799;50.844;5.304;2024-01-30T10:33:10;12.70;99.90
29939;DHT22;16799;50.844;5.304;2024-01-30T10:35:36;12.90;99.90
29939;DHT22;16799;50.844;5.304;2024-01-30T10:38:02;12.90;99.90
29939;DHT22;16799;50.844;5.304;2024-01-30T10:40:29;12.80;99.90
29939;DHT22;16799;50.844;5.304;2024-01-30T10:42:55;12.90;99.90
29939;DHT22;16799;50.844;5.304;2024-01-30T10:45:22;13.00;99.90
29939;DHT22;16799;50.844;5.304;2024-01-30T10:47:54;12.90;99.90
29939;DHT22;16799;50.844;5.304;2024-01-30T10:50:24;12.90;99.90
29939;DHT22;16799;50.844;5.304;2024-01-30T10:52:50;12.90;99.90
29939;DHT22;16799;50.844;5.304;2024-01-30T10:55:17;12.80;99.90
29939;DHT22;16799;50.844;5.304;2024-01-30T10:57:43;12.70;99.90
29939;DHT22;16799;50.844;5.304;2024-01-30T11:00:12;12.60;99.90
29939;DHT22;16799;50.844;5.304;2024-01-30T11:02:41;12.60;99.90
29939;DHT22;16799;50.844;5.304;2024-01-30T11:05:08;12.50;99.90
29939;DHT22;16799;50.844;5.304;2024-01-30T11:07:34;12.50;99.90
29939;DHT22;16799;50.844;5.304;2024-01-30T11:10:02;12.40;99.90
29939;DHT22;16799;50.844;5.304;2024-01-30T11:12:30;12.40;99.90
29939;DHT22;16799;50.844;5.304;2024-01-30T11:20:14;12.20;99.90
29939;DHT22;16799;50.844;5.304;2024-01-30T11:22:42;12.10;99.90
29939;DHT22;16799;50.844;5.304;2024-01-30T11:25:14;12.10;99.90
29939;DHT22;16799;50.844;5.304;2024-01-30T11:27:44;12.10;99.90
29939;DHT22;16799;50.844;5.304;2024-01-30T11:30:11;12.10;99.90
29939;DHT22;16799;50.844;5.304;2024-01-30T11:32:46;12.00;99.90
29939;DHT22;16799;50.844;5.304;2024-01-30T11:35:11;11.90;99.90
29939;DHT22;16799;50.844;5.304;2024-01-30T11:37:37;11.90;99.90
29939;DHT22;16799;50.844;5.304;2024-01-30T11:40:07;11.90;99.90
29939;DHT22;16799;50.844;5.304;2024-01-30T11:42:34;12.00;99.90
29939;DHT22;16799;50.844;5.304;2024-01-30T11:45:02;12.00;99.90
29939;DHT22;16799;50.844;5.304;2024-01-30T11:47:28;12.00;99.90
29939;DHT22;16799;50.844;5.304;2024-01-30T11:49:54;12.00;99.90
29939;DHT22;16799;50.844;5.304;2024-01-30T11:52:20;11.90;99.90
29939;DHT22;16799;50.844;5.304;2024-01-30T11:54:46;12.00;99.90
29939;DHT22;16799;50.844;5.304;2024-01-30T11:57:11;12.00;99.90
29939;DHT22;16799;50.844;5.304;2024-01-30T11:59:37;11.90;99.90
29939;DHT22;16799;50.844;5.304;2024-01-30T12:02:03;11.90;99.90
29939;DHT22;16799;50.844;5.304;2024-01-30T12:04:29;12.10;99.90
29939;DHT22;16799;50.844;5.304;2024-01-30T12:06:55;11.90;99.90
29939;DHT22;16799;50.844;5.304;2024-01-30T12:09:21;11.90;99.90
29939;DHT22;16799;50.844;5.304;2024-01-30T12:11:48;11.80;99.90
29939;DHT22;16799;50.844;5.304;2024-01-30T12:14:15;11.80;99.90
29939;DHT22;16799;50.844;5.304;2024-01-30T12:16:41;11.80;99.90
29939;DHT22;16799;50.844;5.304;2024-01-30T12:19:07;11.80;99.90
29939;DHT22;16799;50.844;5.304;2024-01-30T12:21:34;11.80;99.90
29939;DHT22;16799;50.844;5.304;2024-01-30T12:24:00;11.80;99.90
29939;DHT22;16799;50.844;5.304;2024-01-30T12:26:26;11.80;99.90
29939;DHT22;16799;50.844;5.304;2024-01-30T12:28:56;11.80;99.90
29939;DHT22;16799;50.844;5.304;2024-01-30T12:31:31;11.90;99.90
29939;DHT22;16799;50.844;5.304;2024-01-30T12:33:59;11.80;99.90
29939;DHT22;16799;50.844;5.304;2024-01-30T12:36:25;11.90;99.90
29939;DHT22;16799;50.844;5.304;2024-01-30T12:38:51;11.90;99.90
29939;DHT22;16799;50.844;5.304;2024-01-30T12:41:17;11.90;99.90
29939;DHT22;16799;50.844;5.304;2024-01-30T12:43:43;12.00;99.90
29939;DHT22;16799;50.844;5.304;2024-01-30T12:46:09;12.00;99.90
29939;DHT22;16799;50.844;5.304;2024-01-30T12:48:35;12.00;99.90
29939;DHT22;16799;50.844;5.304;2024-01-30T12:51:01;12.00;99.90
29939;DHT22;16799;50.844;5.304;2024-01-30T12:53:27;12.00;99.90
29939;DHT22;16799;50.844;5.304;2024-01-30T12:55:52;12.00;99.90
29939;DHT22;16799;50.844;5.304;2024-01-30T12:58:19;11.90;99.90
29939;DHT22;16799;50.844;5.304;2024-01-30T13:00:45;11.90;99.90
29939;DHT22;16799;50.844;5.304;2024-01-30T13:03:12;11.60;99.90
29939;DHT22;16799;50.844;5.304;2024-01-30T13:05:38;11.50;99.90
29939;DHT22;16799;50.844;5.304;2024-01-30T13:08:04;11.40;99.90
29939;DHT22;16799;50.844;5.304;2024-01-30T13:10:30;11.30;99.90
29939;DHT22;16799;50.844;5.304;2024-01-30T13:12:55;11.30;99.90
29939;DHT22;16799;50.844;5.304;2024-01-30T13:15:22;11.30;99.90
29939;DHT22;16799;50.844;5.304;2024-01-30T13:17:48;11.20;99.90
29939;DHT22;16799;50.844;5.304;2024-01-30T13:20:15;11.20;99.90
29939;DHT22;16799;50.844;5.304;2024-01-30T13:22:44;11.20;99.90
29939;DHT22;16799;50.844;5.304;2024-01-30T13:25:10;11.10;99.90
29939;DHT22;16799;50.844;5.304;2024-01-30T13:27:37;11.20;99.90
29939;DHT22;16799;50.844;5.304;2024-01-30T13:30:03;11.20;99.90
29939;DHT22;16799;50.844;5.304;2024-01-30T13:32:29;11.20;99.90
29939;DHT22;16799;50.844;5.304;2024-01-30T13:34:55;11.20;99.90
29939;DHT22;16799;50.844;5.304;2024-01-30T13:37:22;11.20;99.90
29939;DHT22;16799;50.844;5.304;2024-01-30T13:39:48;11.20;99.90
29939;DHT22;16799;50.844;5.304;2024-01-30T13:42:13;11.30;99.90
29939;DHT22;16799;50.844;5.304;2024-01-30T13:44:39;11.20;99.90
29939;DHT22;16799;50.844;5.304;2024-01-30T13:47:05;11.20;99.90
29939;DHT22;16799;50.844;5.304;2024-01-30T13:49:31;11.20;99.90
29939;DHT22;16799;50.844;5.304;2024-01-30T13:51:56;11.20;99.90
29939;DHT22;16799;50.844;5.304;2024-01-30T13:54:23;11.30;99.90
29939;DHT22;16799;50.844;5.304;2024-01-30T13:56:49;11.30;99.90
29939;DHT22;16799;50.844;5.304;2024-01-30T13:59:14;11.30;99.90
29939;DHT22;16799;50.844;5.304;2024-01-30T14:01:40;11.30;99.90
29939;DHT22;16799;50.844;5.304;2024-01-30T14:04:06;11.20;99.90
29939;DHT22;16799;50.844;5.304;2024-01-30T14:06:31;11.20;99.90
29939;DHT22;16799;50.844;5.304;2024-01-30T14:08:57;11.30;99.90
29939;DHT22;16799;50.844;5.304;2024-01-30T14:11:23;11.30;99.90
29939;DHT22;16799;50.844;5.304;2024-01-30T14:13:49;11.30;99.90
29939;DHT22;16799;50.844;5.304;2024-01-30T14:16:15;11.20;99.90
29939;DHT22;16799;50.844;5.304;2024-01-30T14:18:41;11.20;99.90
29939;DHT22;16799;50.844;5.304;2024-01-30T14:21:07;11.30;99.90
29939;DHT22;16799;50.844;5.304;2024-01-30T14:23:33;11.30;99.90
29939;DHT22;16799;50.844;5.304;2024-01-30T14:25:59;11.10;99.90
29939;DHT22;16799;50.844;5.304;2024-01-30T14:28:25;11.00;99.90
29939;DHT22;16799;50.844;5.304;2024-01-30T14:30:50;10.90;99.90
29939;DHT22;16799;50.844;5.304;2024-01-30T14:33:16;10.90;99.90
29939;DHT22;16799;50.844;5.304;2024-01-30T14:35:42;10.90;99.90
29939;DHT22;16799;50.844;5.304;2024-01-30T14:38:08;10.90;99.90
29939;DHT22;16799;50.844;5.304;2024-01-30T14:40:33;10.80;99.90
29939;DHT22;16799;50.844;5.304;2024-01-30T14:42:59;10.80;99.90
29939;DHT22;16799;50.844;5.304;2024-01-30T14:45:25;10.80;99.90
29939;DHT22;16799;50.844;5.304;2024-01-30T14:47:50;10.80;99.90
29939;DHT22;16799;50.844;5.304;2024-01-30T14:50:16;10.80;99.90
29939;DHT22;16799;50.844;5.304;2024-01-30T14:52:42;10.80;99.90
29939;DHT22;16799;50.844;5.304;2024-01-30T14:55:08;10.80;99.90
29939;DHT22;16799;50.844;5.304;2024-01-30T14:57:34;10.80;99.90
29939;DHT22;16799;50.844;5.304;2024-01-30T15:00:00;10.80;99.90
29939;DHT22;16799;50.844;5.304;2024-01-30T15:02:26;10.80;99.90
29939;DHT22;16799;50.844;5.304;2024-01-30T15:04:52;10.80;99.90
29939;DHT22;16799;50.844;5.304;2024-01-30T15:07:18;10.90;99.90
29939;DHT22;16799;50.844;5.304;2024-01-30T15:09:44;11.00;99.90
29939;DHT22;16799;50.844;5.304;2024-01-30T15:12:09;10.90;99.90
29939;DHT22;16799;50.844;5.304;2024-01-30T15:14:35;10.90;99.90
29939;DHT22;16799;50.844;5.304;2024-01-30T15:17:01;10.80;99.90
29939;DHT22;16799;50.844;5.304;2024-01-30T15:19:27;10.70;99.90
29939;DHT22;16799;50.844;5.304;2024-01-30T15:21:52;10.70;99.90
29939;DHT22;16799;50.844;5.304;2024-01-30T15:24:18;10.60;99.90
29939;DHT22;16799;50.844;5.304;2024-01-30T15:26:45;10.60;99.90
29939;DHT22;16799;50.844;5.304;2024-01-30T15:29:11;10.60;99.90
29939;DHT22;16799;50.844;5.304;2024-01-30T15:31:37;10.60;99.90
29939;DHT22;16799;50.844;5.304;2024-01-30T15:34:02;10.50;99.90
29939;DHT22;16799;50.844;5.304;2024-01-30T15:36:29;10.50;99.90